createdAt,value
2024-03-05T00:01:38.359Z,26.52
2024-03-05T00:04:06.412Z,28.63
2024-03-05T00:06:34.181Z,28.92
2024-03-05T00:09:01.447Z,27.33
2024-03-05T00:11:28.571Z,27.65
2024-03-05T00:13:55.794Z,27.52
2024-03-05T00:16:22.961Z,26.75
2024-03-05T00:18:50.123Z,27.15
2024-03-05T00:21:17.240Z,29.17
2024-03-05T00:23:44.515Z,30.50
2024-03-05T00:26:15.965Z,29.05
2024-03-05T00:28:43.462Z,28.42
2024-03-05T00:31:10.643Z,29.08
2024-03-05T00:33:37.742Z,30.92
2024-03-05T00:36:05.070Z,26.75
2024-03-05T00:38:33.976Z,29.52
2024-03-05T00:41:01.740Z,32.60
2024-03-05T00:43:29.020Z,30.13
2024-03-05T00:45:56.224Z,28.98
2024-03-05T00:48:23.316Z,31.45
2024-03-05T00:50:51.776Z,29.85
2024-03-05T00:53:19.486Z,30.17
2024-03-05T00:55:46.673Z,29.52
2024-03-05T00:58:13.903Z,28.83
2024-03-05T01:00:41.125Z,30.00
2024-03-05T01:03:08.255Z,27.63
2024-03-05T01:05:35.354Z,29.45
2024-03-05T01:08:02.551Z,28.20
2024-03-05T01:10:29.755Z,29.88
2024-03-05T01:12:57.771Z,29.13
2024-03-05T01:15:25.518Z,29.40
2024-03-05T01:17:53.318Z,28.17
2024-03-05T01:20:21.404Z,28.95
2024-03-05T01:22:48.710Z,29.65
2024-03-05T01:25:17.974Z,28.00
2024-03-05T01:27:45.263Z,30.15
2024-03-05T01:30:12.650Z,31.42
2024-03-05T01:32:40.249Z,28.35
2024-03-05T01:35:12.258Z,29.40
2024-03-05T01:37:39.613Z,28.40
2024-03-05T01:40:07.089Z,29.70
2024-03-05T01:42:34.435Z,28.67
2024-03-05T01:45:01.531Z,28.95
2024-03-05T01:47:28.912Z,29.15
2024-03-05T01:49:56.963Z,29.75
2024-03-05T01:52:24.202Z,30.30
2024-03-05T01:54:51.508Z,31.25
2024-03-05T01:57:18.746Z,30.63
2024-03-05T01:59:45.888Z,32.38
2024-03-05T02:02:13.189Z,30.38
2024-03-05T02:04:40.430Z,29.60
2024-03-05T02:07:07.815Z,30.52
2024-03-05T02:09:34.975Z,31.25
2024-03-05T02:12:04.175Z,32.22
2024-03-05T02:14:32.184Z,33.67
2024-03-05T02:17:00.296Z,32.30
2024-03-05T02:19:27.608Z,30.25
2024-03-05T02:21:58.515Z,30.52
2024-03-05T02:24:25.601Z,30.73
2024-03-05T02:26:53.644Z,29.33
2024-03-05T02:29:21.023Z,30.80
2024-03-05T02:31:48.549Z,33.45
2024-03-05T02:34:15.696Z,31.60
2024-03-05T02:36:44.215Z,30.52
2024-03-05T02:39:11.590Z,29.65
2024-03-05T02:41:39.296Z,31.63
2024-03-05T02:44:06.432Z,31.25
2024-03-05T02:46:33.651Z,31.60
2024-03-05T02:49:00.829Z,31.30
2024-03-05T02:51:29.959Z,33.42
2024-03-05T02:53:57.439Z,32.53
2024-03-05T02:56:26.137Z,32.47
2024-03-05T02:58:53.599Z,32.05
2024-03-05T03:01:20.796Z,32.72
2024-03-05T03:03:47.925Z,30.88
2024-03-05T03:06:18.428Z,30.85
2024-03-05T03:08:45.583Z,34.25
2024-03-05T03:11:16.911Z,33.50
2024-03-05T03:13:47.670Z,31.83
2024-03-05T03:16:15.323Z,34.65
2024-03-05T03:18:45.606Z,35.00
2024-03-05T03:21:12.872Z,31.95
2024-03-05T03:23:40.026Z,32.38
2024-03-05T03:26:08.210Z,33.35
2024-03-05T03:28:35.803Z,35.17
2024-03-05T03:31:02.930Z,32.00
2024-03-05T03:33:30.020Z,33.50
2024-03-05T03:35:57.348Z,32.17
2024-03-05T03:38:24.847Z,34.55
2024-03-05T03:40:53.308Z,32.70
2024-03-05T03:43:20.921Z,35.03
2024-03-05T03:45:48.099Z,34.22
2024-03-05T03:48:15.892Z,35.28
2024-03-05T03:50:44.393Z,33.72
2024-03-05T03:53:11.613Z,32.92
2024-03-05T03:55:38.849Z,31.55
2024-03-05T03:58:06.010Z,32.63
2024-03-05T04:00:33.962Z,33.13
2024-03-05T04:03:01.495Z,33.28
2024-03-05T04:05:28.608Z,32.83
2024-03-05T04:07:55.915Z,33.08
2024-03-05T04:10:24.145Z,33.95
2024-03-05T04:12:51.441Z,33.60
2024-03-05T04:15:20.115Z,34.65
2024-03-05T04:17:47.857Z,34.67
2024-03-05T04:20:16.146Z,33.88
2024-03-05T04:22:44.246Z,33.25
2024-03-05T04:25:11.577Z,32.13
2024-03-05T04:27:43.454Z,31.83
2024-03-05T04:30:13.547Z,31.85
2024-03-05T04:32:57.922Z,31.70
2024-03-05T04:35:27.638Z,32.05
2024-03-05T04:37:54.843Z,32.03
2024-03-05T04:40:22.098Z,32.08
2024-03-05T04:42:50.239Z,31.98
2024-03-05T04:45:18.633Z,35.17
2024-03-05T04:47:46.341Z,33.22
2024-03-05T04:50:15.477Z,33.78
2024-03-05T04:52:42.969Z,33.10
2024-03-05T04:55:11.169Z,30.90
2024-03-05T04:57:38.394Z,33.42
2024-03-05T05:00:18.618Z,34.15
2024-03-05T05:02:47.940Z,33.13
2024-03-05T05:05:16.760Z,32.75
2024-03-05T05:07:44.844Z,33.60
2024-03-05T05:10:12.353Z,34.33
2024-03-05T05:12:40.385Z,33.00
2024-03-05T05:15:10.592Z,34.67
2024-03-05T05:17:37.828Z,35.30
2024-03-05T05:20:09.730Z,32.90
2024-03-05T05:22:42.783Z,33.08
2024-03-05T05:25:09.910Z,25.63
2024-03-05T05:27:36.874Z,33.00
2024-03-05T05:30:09.172Z,34.33
2024-03-05T05:32:40.497Z,32.70
2024-03-05T05:35:07.496Z,34.25
2024-03-05T05:37:34.244Z,36.22
2024-03-05T05:40:01.968Z,32.63
2024-03-05T05:42:28.665Z,35.30
2024-03-05T05:44:55.458Z,35.05
2024-03-05T05:47:23.564Z,35.60
2024-03-05T05:49:50.406Z,36.45
2024-03-05T05:52:18.967Z,35.13
2024-03-05T05:54:47.880Z,36.63
2024-03-05T05:57:14.605Z,34.65
2024-03-05T05:59:43.190Z,33.17
2024-03-05T06:02:12.571Z,35.05
2024-03-05T06:04:39.508Z,34.92
2024-03-05T06:07:09.909Z,33.22
2024-03-05T06:09:41.580Z,33.60
2024-03-05T06:12:08.964Z,35.00
2024-03-05T06:14:36.199Z,35.38
2024-03-05T06:17:03.560Z,35.38
2024-03-05T06:19:30.730Z,34.17
2024-03-05T06:21:58.564Z,35.90
2024-03-05T06:24:25.678Z,33.05
2024-03-05T06:26:52.800Z,34.00
2024-03-05T06:29:19.940Z,35.10
2024-03-05T06:31:47.204Z,34.75
2024-03-05T06:34:15.256Z,33.72
2024-03-05T06:36:46.665Z,34.45
2024-03-05T06:39:20.783Z,33.38
2024-03-05T06:41:48.632Z,34.33
2024-03-05T06:44:16.252Z,32.72
2024-03-05T06:46:43.456Z,31.55
2024-03-05T06:49:16.032Z,32.95
2024-03-05T06:51:54.111Z,33.67
2024-03-05T06:54:40.250Z,31.88
2024-03-05T06:57:09.524Z,31.13
2024-03-05T06:59:36.636Z,32.97
2024-03-05T07:02:04.240Z,31.50
2024-03-05T07:04:31.562Z,32.35
2024-03-05T07:06:58.742Z,33.85
2024-03-05T07:09:31.820Z,30.98
2024-03-05T07:11:59.028Z,23.80
2024-03-05T07:14:26.254Z,31.20
2024-03-05T07:16:54.329Z,33.75
2024-03-05T07:19:22.118Z,34.13
2024-03-05T07:21:49.321Z,32.72
2024-03-05T07:24:17.398Z,32.47
2024-03-05T07:26:53.068Z,32.40
2024-03-05T07:29:28.136Z,33.80
2024-03-05T07:31:55.944Z,32.47
2024-03-05T07:34:23.137Z,32.97
2024-03-05T07:36:50.259Z,33.90
2024-03-05T07:39:18.004Z,34.20
2024-03-05T07:41:48.171Z,31.30
2024-03-05T07:44:15.315Z,31.92
2024-03-05T07:46:43.161Z,30.95
2024-03-05T07:49:10.300Z,32.55
2024-03-05T07:51:44.389Z,31.42
2024-03-05T07:54:12.864Z,32.17
2024-03-05T07:56:40.741Z,32.80
2024-03-05T07:59:07.955Z,31.88
2024-03-05T08:01:35.138Z,33.75
2024-03-05T08:04:02.568Z,34.28
2024-03-05T08:06:30.025Z,31.83
2024-03-05T08:08:58.077Z,31.95
2024-03-05T08:11:25.339Z,32.42
2024-03-05T08:13:52.764Z,32.28
2024-03-05T08:16:19.986Z,31.98
2024-03-05T08:18:47.462Z,32.45
2024-03-05T08:21:14.690Z,32.13
2024-03-05T08:23:41.887Z,33.58
2024-03-05T08:26:09.517Z,31.25
2024-03-05T08:28:36.740Z,33.22
2024-03-05T08:31:03.963Z,33.50
2024-03-05T08:33:33.626Z,29.75
2024-03-05T08:36:00.930Z,32.72
2024-03-05T08:38:28.226Z,32.17
2024-03-05T08:40:55.429Z,31.98
2024-03-05T08:43:22.642Z,32.42
2024-03-05T08:45:49.817Z,31.55
2024-03-05T08:48:17.146Z,31.90
2024-03-05T08:50:44.677Z,23.95
2024-03-05T08:53:12.111Z,27.42
2024-03-05T08:55:39.485Z,25.48
2024-03-05T08:58:06.763Z,25.80
2024-03-05T09:00:42.048Z,24.63
2024-03-05T09:03:11.601Z,23.10
2024-03-05T09:05:40.677Z,25.80
2024-03-05T09:08:09.786Z,24.70
2024-03-05T09:10:37.039Z,22.98
2024-03-05T09:13:04.662Z,23.73
2024-03-05T09:15:31.868Z,23.92
2024-03-05T09:17:59.131Z,21.13
2024-03-05T09:20:26.841Z,22.77
2024-03-05T09:22:54.020Z,20.60
2024-03-05T09:25:21.254Z,21.70
2024-03-05T09:27:48.461Z,19.63
2024-03-05T09:30:19.161Z,18.95
2024-03-05T09:32:47.703Z,18.52
2024-03-05T09:35:16.623Z,17.63
2024-03-05T09:37:46.879Z,17.25
2024-03-05T09:40:21.909Z,17.27
2024-03-05T09:42:49.225Z,16.17
2024-03-05T09:45:17.851Z,14.77
2024-03-05T09:47:45.693Z,16.13
2024-03-05T09:50:13.786Z,15.18
2024-03-05T09:52:41.362Z,15.00
2024-03-05T09:55:09.923Z,14.68
2024-03-05T09:57:39.630Z,13.77
2024-03-05T10:00:11.339Z,15.82
2024-03-05T10:02:39.644Z,14.77
2024-03-05T10:05:10.502Z,13.30
2024-03-05T10:07:38.273Z,14.73
2024-03-05T10:10:08.575Z,12.30
2024-03-05T10:12:35.921Z,12.27
2024-03-05T10:15:22.295Z,13.05
2024-03-05T10:17:50.877Z,11.13
2024-03-05T10:20:33.211Z,11.77
2024-03-05T10:23:03.144Z,11.02
2024-03-05T10:25:31.128Z,10.95
2024-03-05T10:27:58.267Z,12.25
2024-03-05T10:30:37.096Z,12.68
2024-03-05T10:33:05.169Z,12.73
2024-03-05T10:35:33.249Z,12.75
2024-03-05T10:38:01.767Z,12.80
2024-03-05T10:40:35.970Z,13.60
2024-03-05T10:43:05.389Z,14.50
2024-03-05T10:45:36.214Z,15.82
2024-03-05T10:48:03.491Z,16.10
2024-03-05T10:50:30.768Z,15.45
2024-03-05T10:52:58.832Z,15.82
2024-03-05T10:55:26.643Z,15.48
2024-03-05T10:58:14.594Z,15.90
2024-03-05T11:00:43.446Z,15.60
2024-03-05T11:03:11.720Z,16.88
2024-03-05T11:05:44.027Z,15.40
2024-03-05T11:08:15.012Z,15.43
2024-03-05T11:10:43.566Z,17.02
2024-03-05T11:13:14.562Z,16.02
2024-03-05T11:15:41.804Z,14.60
2024-03-05T11:18:28.116Z,14.27
2024-03-05T11:20:55.419Z,15.32
2024-03-05T11:23:23.541Z,13.70
2024-03-05T11:25:52.781Z,13.98
2024-03-05T11:28:20.353Z,14.65
2024-03-05T11:30:47.880Z,15.75
2024-03-05T11:35:46.661Z,14.85
2024-03-05T11:38:20.094Z,15.70
2024-03-05T11:40:48.506Z,14.43
2024-03-05T11:43:35.718Z,13.98
2024-03-05T11:46:02.943Z,13.82
2024-03-05T11:48:30.144Z,16.58
2024-03-05T11:50:57.525Z,16.58
2024-03-05T11:53:25.019Z,16.50
2024-03-05T11:55:53.418Z,16.23
2024-03-05T11:58:27.092Z,15.80
2024-03-05T12:01:04.517Z,17.08
2024-03-05T12:03:32.030Z,17.63
2024-03-05T12:05:59.206Z,15.93
2024-03-05T12:08:26.369Z,17.27
2024-03-05T12:11:02.133Z,16.20
2024-03-05T12:13:32.434Z,16.90
2024-03-05T12:16:11.243Z,16.58
2024-03-05T12:18:39.460Z,18.15
2024-03-05T12:21:09.980Z,16.52
2024-03-05T12:23:41.885Z,16.42
2024-03-05T12:26:10.724Z,16.33
2024-03-05T12:28:38.103Z,17.58
2024-03-05T12:31:05.413Z,17.77
2024-03-05T12:33:32.621Z,16.42
2024-03-05T12:36:02.171Z,16.73
2024-03-05T12:38:35.925Z,15.75
2024-03-05T12:41:03.434Z,16.23
2024-03-05T12:43:31.517Z,17.98
2024-03-05T12:46:03.738Z,18.17
2024-03-05T12:48:36.023Z,18.42
2024-03-05T12:51:04.497Z,19.17
2024-03-05T12:53:32.019Z,16.98
2024-03-05T12:56:03.033Z,16.88
2024-03-05T12:58:40.312Z,17.00
2024-03-05T13:01:07.791Z,17.73
2024-03-05T13:03:35.191Z,18.30
2024-03-05T13:06:02.495Z,18.35
2024-03-05T13:08:29.686Z,15.77
2024-03-05T13:10:56.907Z,16.15
2024-03-05T13:13:25.170Z,15.30
2024-03-05T13:15:53.072Z,16.00
2024-03-05T13:18:20.490Z,15.15
2024-03-05T13:20:47.636Z,16.88
2024-03-05T13:23:14.789Z,15.05
2024-03-05T13:25:41.999Z,15.30
2024-03-05T13:28:09.149Z,15.80
2024-03-05T13:30:36.999Z,14.98
2024-03-05T13:33:05.823Z,14.70
2024-03-05T13:35:33.113Z,15.20
2024-03-05T13:38:01.052Z,14.50
2024-03-05T13:40:28.278Z,14.73
2024-03-05T13:42:55.891Z,14.02
2024-03-05T13:45:23.269Z,13.88
2024-03-05T13:47:50.489Z,14.25
2024-03-05T13:50:19.141Z,14.10
2024-03-05T13:52:52.994Z,13.77
2024-03-05T13:55:26.868Z,13.13
2024-03-05T13:57:54.121Z,11.93
2024-03-05T14:00:21.892Z,13.32
2024-03-05T14:02:49.840Z,13.20
2024-03-05T14:05:17.328Z,13.88
2024-03-05T14:07:45.478Z,13.52
2024-03-05T14:10:13.326Z,14.38
2024-03-05T14:12:41.376Z,13.05
2024-03-05T14:15:21.414Z,13.50
2024-03-05T14:17:49.464Z,12.82
2024-03-05T14:20:21.029Z,13.63
2024-03-05T14:22:48.378Z,13.52
2024-03-05T14:25:18.525Z,12.52
2024-03-05T14:27:48.791Z,12.88
2024-03-05T14:30:19.450Z,12.55
2024-03-05T14:32:47.542Z,12.18
2024-03-05T14:35:15.287Z,12.50
2024-03-05T14:37:43.552Z,12.80
2024-03-05T14:40:11.567Z,13.07
2024-03-05T14:42:39.319Z,13.07
2024-03-05T14:45:06.819Z,12.82
2024-03-05T14:47:34.171Z,12.38
2024-03-05T14:50:01.628Z,11.55
2024-03-05T14:52:28.853Z,11.85
2024-03-05T14:54:57.915Z,10.98
2024-03-05T14:57:25.077Z,11.27
2024-03-05T14:59:51.832Z,11.32
2024-03-05T15:02:18.812Z,10.63
2024-03-05T15:04:45.741Z,10.98
2024-03-05T15:07:12.891Z,11.23
2024-03-05T15:09:40.084Z,10.68
2024-03-05T15:12:10.767Z,11.10
2024-03-05T15:14:43.415Z,11.77
2024-03-05T15:17:10.758Z,10.60
2024-03-05T15:19:37.764Z,10.60
2024-03-05T15:22:04.758Z,10.23
2024-03-05T15:24:31.488Z,10.45
2024-03-05T15:27:05.074Z,9.18
2024-03-05T15:29:33.795Z,9.63
2024-03-05T15:32:02.074Z,8.05
2024-03-05T15:34:29.654Z,8.70
2024-03-05T15:36:56.935Z,9.73
2024-03-05T15:39:24.062Z,8.85
2024-03-05T15:41:51.048Z,9.60
2024-03-05T15:44:19.496Z,10.00
2024-03-05T15:46:46.567Z,9.02
2024-03-05T15:49:13.479Z,8.13
2024-03-05T15:51:40.357Z,10.02
2024-03-05T15:54:07.057Z,8.40
2024-03-05T15:56:46.702Z,8.73
2024-03-05T15:59:33.479Z,10.15
2024-03-05T16:02:00.806Z,8.93
2024-03-05T16:06:58.275Z,10.27
2024-03-05T16:09:25.688Z,8.98
2024-03-05T16:11:53.385Z,8.85
2024-03-05T16:14:21.327Z,8.88
2024-03-05T16:16:48.668Z,9.07
2024-03-05T16:19:15.880Z,8.70
2024-03-05T16:21:43.148Z,9.30
2024-03-05T16:24:10.262Z,9.18
2024-03-05T16:26:37.525Z,9.30
2024-03-05T16:29:05.349Z,9.38
2024-03-05T16:31:33.834Z,9.30
2024-03-05T16:34:02.420Z,9.65
2024-03-05T16:36:29.804Z,10.98
2024-03-05T16:38:57.102Z,10.85
2024-03-05T16:41:24.274Z,11.77
2024-03-05T16:43:51.699Z,11.85
2024-03-05T16:46:19.230Z,11.60
2024-03-05T16:48:48.206Z,10.35
2024-03-05T16:51:15.692Z,12.55
2024-03-05T16:53:43.050Z,10.60
2024-03-05T16:56:10.313Z,9.43
2024-03-05T16:58:39.681Z,9.38
2024-03-05T17:01:09.475Z,9.55
2024-03-05T17:03:37.114Z,9.40
2024-03-05T17:06:08.898Z,9.73
2024-03-05T17:08:36.048Z,9.05
2024-03-05T17:11:10.764Z,9.25
2024-03-05T17:13:42.474Z,8.50
2024-03-05T17:16:12.800Z,7.95
2024-03-05T17:18:40.286Z,8.50
2024-03-05T17:21:08.368Z,7.10
2024-03-05T17:23:42.016Z,6.72
2024-03-05T17:26:11.128Z,7.25
2024-03-05T17:28:38.540Z,6.93
2024-03-05T17:31:07.133Z,6.82
2024-03-05T17:33:35.535Z,6.65
2024-03-05T17:36:03.565Z,6.35
2024-03-05T17:38:33.165Z,6.40
2024-03-05T17:41:02.157Z,6.50
2024-03-05T17:43:30.784Z,5.63
2024-03-05T17:45:58.302Z,7.13
2024-03-05T17:48:25.531Z,6.43
2024-03-05T17:50:53.389Z,6.45
2024-03-05T17:53:21.727Z,5.90
2024-03-05T17:55:49.851Z,6.43
2024-03-05T17:58:19.822Z,7.32
2024-03-05T18:00:48.294Z,7.32
2024-03-05T18:03:16.059Z,6.82
2024-03-05T18:05:46.978Z,7.35
2024-03-05T18:08:14.727Z,12.20
2024-03-05T18:10:42.802Z,8.65
2024-03-05T18:13:10.616Z,7.65
2024-03-05T18:15:37.942Z,8.32
2024-03-05T18:18:07.238Z,8.63
2024-03-05T18:20:35.724Z,8.10
2024-03-05T18:23:03.447Z,8.20
2024-03-05T18:25:35.251Z,9.77
2024-03-05T18:28:03.501Z,8.82
2024-03-05T18:30:34.092Z,8.07
2024-03-05T18:33:01.404Z,14.35
2024-03-05T18:35:29.175Z,23.13
2024-03-05T18:37:56.571Z,21.85
2024-03-05T18:40:25.302Z,25.95
2024-03-05T18:42:52.686Z,10.95
2024-03-05T18:45:24.316Z,11.35
2024-03-05T18:47:59.496Z,8.82
2024-03-05T18:50:32.919Z,8.68
2024-03-05T18:53:02.505Z,10.90
2024-03-05T18:55:32.058Z,45.72
2024-03-05T18:57:59.808Z,11.50
2024-03-05T19:00:27.747Z,9.98
2024-03-05T19:02:56.068Z,9.80
2024-03-05T19:05:23.556Z,12.43
2024-03-05T19:07:52.606Z,9.85
2024-03-05T19:10:20.612Z,9.85
2024-03-05T19:12:48.541Z,20.33
2024-03-05T19:15:18.539Z,12.85
2024-03-05T19:17:49.162Z,9.30
2024-03-05T19:20:16.966Z,8.88
2024-03-05T19:22:44.293Z,8.80
2024-03-05T19:25:12.769Z,9.05
2024-03-05T19:27:42.366Z,9.45
2024-03-05T19:30:18.743Z,8.93
2024-03-05T19:32:46.712Z,9.25
2024-03-05T19:35:18.594Z,9.73
2024-03-05T19:37:47.369Z,10.13
2024-03-05T19:40:20.584Z,9.82
2024-03-05T19:42:54.185Z,10.10
2024-03-05T19:45:24.854Z,9.95
2024-03-05T19:47:52.542Z,10.82
2024-03-05T19:50:20.247Z,9.77
2024-03-05T19:52:47.435Z,9.88
2024-03-05T19:55:18.385Z,10.48
2024-03-05T19:57:45.949Z,10.07
2024-03-05T20:00:19.570Z,10.95
2024-03-05T20:05:16.153Z,10.13
2024-03-05T20:07:43.520Z,10.93
2024-03-05T20:10:10.859Z,11.95
2024-03-05T20:12:38.878Z,11.18
2024-03-05T20:15:09.887Z,9.98
2024-03-05T20:17:37.870Z,11.15
2024-03-05T20:20:06.753Z,10.82
2024-03-05T20:22:34.647Z,11.43
2024-03-05T20:25:01.866Z,12.13
2024-03-05T20:27:29.394Z,11.35
2024-03-05T20:30:01.808Z,10.57
2024-03-05T20:32:32.086Z,11.13
2024-03-05T20:35:00.448Z,12.65
2024-03-05T20:37:30.907Z,12.80
2024-03-05T20:39:59.398Z,11.80
2024-03-05T20:42:26.757Z,11.77
2024-03-05T20:44:54.058Z,13.23
2024-03-05T20:47:21.219Z,12.68
2024-03-05T20:49:48.398Z,12.38
2024-03-05T20:52:16.297Z,14.00
2024-03-05T20:54:43.539Z,12.73
2024-03-05T20:57:10.696Z,13.23
2024-03-05T20:59:38.107Z,12.32
2024-03-05T21:02:10.487Z,13.02
2024-03-05T21:04:38.688Z,13.87
2024-03-05T21:07:06.198Z,14.80
2024-03-05T21:09:33.525Z,14.60
2024-03-05T21:12:01.524Z,14.55
2024-03-05T21:14:28.862Z,14.65
2024-03-05T21:16:56.174Z,14.10
2024-03-05T21:19:27.405Z,14.40
2024-03-05T21:21:54.684Z,15.20
2024-03-05T21:24:24.569Z,15.02
2024-03-05T21:29:21.734Z,15.77
2024-03-05T21:31:48.940Z,14.52
2024-03-05T21:34:16.101Z,16.13
2024-03-05T21:36:44.164Z,17.08
2024-03-05T21:39:14.762Z,15.77
2024-03-05T21:41:42.502Z,16.25
2024-03-05T21:44:10.179Z,15.82
2024-03-05T21:46:37.985Z,16.95
2024-03-05T21:49:06.747Z,16.08
2024-03-05T21:51:34.075Z,18.77
2024-03-05T21:54:01.273Z,17.73
2024-03-05T21:56:28.402Z,16.85
2024-03-05T21:58:55.650Z,17.45
2024-03-05T22:01:23.104Z,17.17
2024-03-05T22:03:50.267Z,16.77
2024-03-05T22:06:23.832Z,15.80
2024-03-05T22:08:52.150Z,17.55
2024-03-05T22:11:19.401Z,16.73
2024-03-05T22:13:47.097Z,18.23
2024-03-05T22:16:14.485Z,17.63
2024-03-05T22:18:41.712Z,18.40
2024-03-05T22:21:09.193Z,18.13
2024-03-05T22:23:36.380Z,18.30
2024-03-05T22:26:03.519Z,17.13
2024-03-05T22:28:31.225Z,17.02
2024-03-05T22:30:59.236Z,17.98
2024-03-05T22:33:26.492Z,17.15
2024-03-05T22:35:53.625Z,19.02
2024-03-05T22:38:21.723Z,18.63
2024-03-05T22:40:49.028Z,18.08
2024-03-05T22:43:16.202Z,18.83
2024-03-05T22:45:43.421Z,19.08
2024-03-05T22:48:10.844Z,19.75
2024-03-05T22:50:38.193Z,19.63
2024-03-05T22:53:05.414Z,18.67
2024-03-05T22:55:32.646Z,19.02
2024-03-05T22:57:59.787Z,20.15
2024-03-05T23:00:35.996Z,19.27
2024-03-05T23:03:06.445Z,20.75
2024-03-05T23:05:33.589Z,21.38
2024-03-05T23:08:01.039Z,19.75
2024-03-05T23:10:29.689Z,21.42
2024-03-05T23:12:57.450Z,21.08
2024-03-05T23:15:25.604Z,21.83
2024-03-05T23:17:52.874Z,23.83
2024-03-05T23:20:20.280Z,22.58
2024-03-05T23:22:51.104Z,22.13
2024-03-05T23:25:19.712Z,24.30
2024-03-05T23:27:47.869Z,23.65
2024-03-05T23:30:17.591Z,23.42
2024-03-05T23:32:45.515Z,26.73
2024-03-05T23:35:13.178Z,23.95
2024-03-05T23:37:40.496Z,24.58
2024-03-05T23:40:08.067Z,25.95
2024-03-05T23:42:35.800Z,24.58
2024-03-05T23:45:04.538Z,24.85
2024-03-05T23:47:32.147Z,24.50
2024-03-05T23:49:59.724Z,23.75
2024-03-05T23:52:29.833Z,25.05
2024-03-05T23:54:59.901Z,25.48
2024-03-05T23:57:29.632Z,1.02
2024-03-05T23:59:56.904Z,2.00
